createdAt,value
2023-02-12T00:01:24.110Z,98194.91
2023-02-12T00:03:52.429Z,98189.98
2023-02-12T00:06:20.677Z,98190.46
2023-02-12T00:08:54.303Z,98190.11
2023-02-12T00:11:28.591Z,98189.10
2023-02-12T00:13:58.327Z,98187.90
2023-02-12T00:16:28.977Z,98184.66
2023-02-12T00:18:58.737Z,98186.18
2023-02-12T00:21:29.086Z,98181.42
2023-02-12T00:23:57.880Z,98179.55
2023-02-12T00:26:25.968Z,98177.48
2023-02-12T00:28:55.063Z,98178.15
2023-02-12T00:31:26.763Z,98176.29
2023-02-12T00:33:59.535Z,98170.67
2023-02-12T00:36:30.549Z,98168.27
2023-02-12T00:39:00.243Z,98169.31
2023-02-12T00:41:28.397Z,98169.33
2023-02-12T00:43:57.025Z,98170.67
2023-02-12T00:46:25.131Z,98172.70
2023-02-12T00:48:53.378Z,98173.41
2023-02-12T00:51:21.962Z,98170.02
2023-02-12T00:53:52.599Z,98167.13
2023-02-12T00:56:20.575Z,98163.89
2023-02-12T00:58:51.020Z,98163.03
2023-02-12T01:01:19.364Z,98163.55
2023-02-12T01:03:47.679Z,98160.96
2023-02-12T01:06:15.959Z,98147.54
2023-02-12T01:08:44.131Z,98149.75
2023-02-12T01:11:13.867Z,98150.80
2023-02-12T01:13:42.131Z,98150.96
2023-02-12T01:16:19.121Z,98146.37
2023-02-12T01:18:48.108Z,98154.35
2023-02-12T01:21:22.634Z,98154.70
2023-02-12T01:23:51.452Z,98150.44
2023-02-12T01:26:21.862Z,98154.02
2023-02-12T01:28:55.261Z,98157.22
2023-02-12T01:31:26.701Z,98156.88
2023-02-12T01:33:57.028Z,98149.90
2023-02-12T01:36:26.245Z,98154.67
2023-02-12T01:38:55.543Z,98160.29
2023-02-12T01:41:27.307Z,98164.89
2023-02-12T01:44:19.417Z,98171.52
2023-02-12T01:46:50.770Z,98172.05
2023-02-12T01:49:25.928Z,98174.44
2023-02-12T01:52:05.044Z,98173.73
2023-02-12T01:54:35.370Z,98162.54
2023-02-12T01:57:05.830Z,98158.77
2023-02-12T01:59:36.693Z,98160.80
2023-02-12T02:02:05.882Z,98170.83
2023-02-12T02:04:50.796Z,98178.64
2023-02-12T02:07:19.083Z,98166.90
2023-02-12T02:09:47.887Z,98165.55
2023-02-12T02:12:34.799Z,98180.00
2023-02-12T02:15:04.792Z,98183.41
2023-02-12T02:17:56.411Z,98182.39
2023-02-12T02:20:46.388Z,98182.04
2023-02-12T02:23:49.971Z,98181.36
2023-02-12T02:26:32.979Z,98182.04
2023-02-12T02:29:19.691Z,98190.03
2023-02-12T02:31:55.103Z,98196.83
2023-02-12T02:34:34.670Z,98194.27
2023-02-12T02:37:37.444Z,98191.89
2023-02-12T02:40:19.942Z,98192.74
2023-02-12T02:42:52.616Z,98191.73
2023-02-12T02:45:35.642Z,98191.56
2023-02-12T02:48:06.479Z,98193.94
2023-02-12T02:50:38.752Z,98200.41
2023-02-12T02:53:19.620Z,98198.87
2023-02-12T02:55:54.802Z,98200.05
2023-02-12T02:58:28.839Z,98199.19
2023-02-12T03:01:08.530Z,98204.61
2023-02-12T03:04:12.914Z,98203.24
2023-02-12T03:06:55.718Z,98208.34
2023-02-12T03:09:39.051Z,98209.70
2023-02-12T03:12:37.736Z,98208.84
2023-02-12T03:15:15.236Z,98203.73
2023-02-12T03:17:49.514Z,98203.23
2023-02-12T03:20:24.577Z,98204.25
2023-02-12T03:22:58.177Z,98203.07
2023-02-12T03:25:34.027Z,98205.95
2023-02-12T03:28:01.938Z,98210.71
2023-02-12T03:30:42.981Z,98205.78
2023-02-12T03:33:32.437Z,98208.34
2023-02-12T03:36:07.066Z,98210.54
2023-02-12T03:38:47.211Z,98207.98
2023-02-12T03:41:28.083Z,98209.86
2023-02-12T03:44:05.992Z,98220.23
2023-02-12T03:47:07.316Z,98228.03
2023-02-12T03:49:47.370Z,98231.77
2023-02-12T03:52:15.434Z,98232.10
2023-02-12T03:54:43.497Z,98232.27
2023-02-12T03:57:16.274Z,98233.29
2023-02-12T03:59:45.096Z,98234.65
2023-02-12T04:02:15.295Z,98238.22
2023-02-12T04:04:44.972Z,98242.64
2023-02-12T04:07:13.918Z,98242.48
2023-02-12T04:09:41.993Z,98243.48
2023-02-12T04:12:28.595Z,98250.11
2023-02-12T04:15:08.782Z,98247.90
2023-02-12T04:18:20.734Z,98248.41
2023-02-12T04:21:13.873Z,98251.30
2023-02-12T04:23:59.761Z,98253.33
2023-02-12T04:26:52.516Z,98259.61
2023-02-12T04:29:37.258Z,98258.41
2023-02-12T04:32:12.828Z,98255.02
2023-02-12T04:34:56.380Z,98249.22
2023-02-12T04:37:35.646Z,98250.23
2023-02-12T04:40:08.050Z,98245.98
2023-02-12T04:42:47.568Z,98241.05
2023-02-12T04:45:21.177Z,98233.23
2023-02-12T04:47:49.457Z,98250.05
2023-02-12T04:50:17.978Z,98254.80
2023-02-12T04:52:46.540Z,98259.73
2023-02-12T04:55:15.123Z,98263.30
2023-02-12T04:57:43.401Z,98274.20
2023-02-12T05:00:14.263Z,98275.23
2023-02-12T05:02:42.330Z,98272.67
2023-02-12T05:05:10.570Z,98274.71
2023-02-12T05:07:38.876Z,98279.45
2023-02-12T05:10:07.911Z,98280.82
2023-02-12T05:12:35.927Z,98289.84
2023-02-12T05:15:04.435Z,98300.56
2023-02-12T05:17:32.514Z,98294.44
2023-02-12T05:20:00.694Z,98297.48
2023-02-12T05:22:28.970Z,98300.88
2023-02-12T05:24:57.253Z,98303.59
2023-02-12T05:27:25.343Z,98307.33
2023-02-12T05:29:53.529Z,98308.02
2023-02-12T05:32:21.582Z,98311.92
2023-02-12T05:34:49.862Z,98315.67
2023-02-12T05:37:17.948Z,98320.26
2023-02-12T05:39:46.016Z,98325.70
2023-02-12T05:42:14.193Z,98332.34
2023-02-12T05:44:42.273Z,98335.75
2023-02-12T05:47:11.063Z,98345.10
2023-02-12T05:49:39.147Z,98351.90
2023-02-12T05:52:07.208Z,98350.71
2023-02-12T05:54:35.294Z,98354.63
2023-02-12T05:57:03.295Z,98359.90
2023-02-12T05:59:31.544Z,98359.22
2023-02-12T06:01:59.560Z,98358.20
2023-02-12T06:04:29.252Z,98362.45
2023-02-12T06:06:57.510Z,98367.22
2023-02-12T06:09:25.635Z,98369.60
2023-02-12T06:11:53.864Z,98380.48
2023-02-12T06:14:22.052Z,98382.16
2023-02-12T06:16:51.977Z,98380.31
2023-02-12T06:19:20.562Z,98377.25
2023-02-12T06:21:48.724Z,98379.30
2023-02-12T06:24:17.442Z,98381.33
2023-02-12T06:26:46.225Z,98379.98
2023-02-12T06:29:14.603Z,98383.36
2023-02-12T06:31:43.245Z,98390.67
2023-02-12T06:34:13.721Z,98391.18
2023-02-12T06:36:44.766Z,98396.29
2023-02-12T06:39:15.611Z,98398.48
2023-02-12T06:41:44.295Z,98397.13
2023-02-12T06:44:13.198Z,98401.39
2023-02-12T06:46:41.188Z,98404.27
2023-02-12T06:49:12.628Z,98416.70
2023-02-12T06:51:41.639Z,98426.39
2023-02-12T06:54:15.089Z,98423.83
2023-02-12T06:56:43.396Z,98417.88
2023-02-12T06:59:15.470Z,98413.27
2023-02-12T07:01:44.060Z,98418.39
2023-02-12T07:04:12.614Z,98425.54
2023-02-12T07:06:41.019Z,98424.16
2023-02-12T07:09:09.032Z,98419.40
2023-02-12T07:11:38.719Z,98431.82
2023-02-12T07:14:08.020Z,98427.73
2023-02-12T07:16:36.113Z,98415.48
2023-02-12T07:19:04.289Z,98414.30
2023-02-12T07:21:32.346Z,98418.55
2023-02-12T07:24:00.461Z,98421.44
2023-02-12T07:26:29.004Z,98424.65
2023-02-12T07:28:58.841Z,98441.35
2023-02-12T07:31:27.134Z,98451.89
2023-02-12T07:33:57.044Z,98452.57
2023-02-12T07:36:27.529Z,98449.16
2023-02-12T07:38:57.070Z,98450.70
2023-02-12T07:41:28.737Z,98459.70
2023-02-12T07:43:59.349Z,98457.14
2023-02-12T07:46:30.819Z,98461.89
2023-02-12T07:49:01.194Z,98469.02
2023-02-12T07:51:29.412Z,98459.14
2023-02-12T07:53:57.501Z,98468.65
2023-02-12T07:56:32.608Z,98469.65
2023-02-12T07:59:03.148Z,98477.45
2023-02-12T08:01:37.023Z,98477.12
2023-02-12T08:04:08.593Z,98478.13
2023-02-12T08:06:40.503Z,98482.52
2023-02-12T08:09:10.850Z,98481.84
2023-02-12T08:11:41.949Z,98481.65
2023-02-12T08:14:15.476Z,98485.70
2023-02-12T08:16:45.296Z,98492.65
2023-02-12T08:19:20.212Z,98493.48
2023-02-12T08:21:53.727Z,98492.94
2023-02-12T08:24:22.608Z,98493.27
2023-02-12T08:26:51.608Z,98494.80
2023-02-12T08:29:22.909Z,98494.59
2023-02-12T08:31:56.614Z,98494.41
2023-02-12T08:34:27.639Z,98496.11
2023-02-12T08:36:56.432Z,98494.06
2023-02-12T08:39:26.634Z,98501.20
2023-02-12T08:41:56.139Z,98507.80
2023-02-12T08:44:27.084Z,98515.39
2023-02-12T08:46:58.091Z,98519.56
2023-02-12T08:49:29.179Z,98518.43
2023-02-12T08:52:01.853Z,98518.85
2023-02-12T08:54:31.652Z,98519.97
2023-02-12T08:57:02.606Z,98521.27
2023-02-12T08:59:31.304Z,98517.80
2023-02-12T09:02:00.773Z,98517.94
2023-02-12T09:04:30.038Z,98520.29
2023-02-12T09:06:58.276Z,98528.45
2023-02-12T09:09:26.367Z,98538.13
2023-02-12T09:11:54.632Z,98534.86
2023-02-12T09:14:25.570Z,98534.48
2023-02-12T09:16:54.818Z,98533.96
2023-02-12T09:19:23.445Z,98535.14
2023-02-12T09:21:55.562Z,98541.95
2023-02-12T09:24:28.126Z,98546.37
2023-02-12T09:26:57.614Z,98549.59
2023-02-12T09:29:25.630Z,98555.89
2023-02-12T09:31:53.855Z,98564.02
2023-02-12T09:34:22.062Z,98565.72
2023-02-12T09:36:50.229Z,98568.09
2023-02-12T09:39:18.322Z,98568.56
2023-02-12T09:42:05.919Z,98560.89
2023-02-12T09:45:02.782Z,98562.40
2023-02-12T09:47:39.028Z,98560.31
2023-02-12T09:50:19.274Z,98555.02
2023-02-12T09:52:48.689Z,98557.05
2023-02-12T09:55:19.098Z,98561.95
2023-02-12T09:57:47.612Z,98557.16
2023-02-12T10:00:22.037Z,98553.90
2023-02-12T10:02:53.075Z,98558.13
2023-02-12T10:05:35.217Z,98557.73
2023-02-12T10:08:15.645Z,98555.83
2023-02-12T10:10:53.448Z,98555.13
2023-02-12T10:14:01.462Z,98561.58
2023-02-12T10:16:47.807Z,98567.16
2023-02-12T10:19:15.780Z,98567.12
2023-02-12T10:22:13.647Z,98564.70
2023-02-12T10:25:19.176Z,98561.08
2023-02-12T10:27:51.360Z,98557.11
2023-02-12T10:30:25.664Z,98553.84
2023-02-12T10:33:04.555Z,98554.65
2023-02-12T10:35:34.798Z,98559.73
2023-02-12T10:38:14.957Z,98561.55
2023-02-12T10:40:45.380Z,98560.66
2023-02-12T10:43:14.204Z,98556.69
2023-02-12T10:45:44.638Z,98565.52
2023-02-12T10:48:20.757Z,98571.44
2023-02-12T10:51:04.703Z,98564.56
2023-02-12T10:53:36.152Z,98569.11
2023-02-12T10:56:09.033Z,98577.45
2023-02-12T10:58:39.360Z,98577.58
2023-02-12T11:01:36.149Z,98573.27
2023-02-12T11:04:26.480Z,98572.05
2023-02-12T11:07:04.385Z,98574.90
2023-02-12T11:09:40.868Z,98573.18
2023-02-12T11:12:17.844Z,98574.99
2023-02-12T11:14:58.416Z,98575.15
2023-02-12T11:17:38.653Z,98582.77
2023-02-12T11:20:16.234Z,98584.27
2023-02-12T11:23:02.624Z,98584.91
2023-02-12T11:25:36.117Z,98586.58
2023-02-12T11:28:18.036Z,98583.80
2023-02-12T11:30:57.099Z,98577.98
2023-02-12T11:33:29.414Z,98578.14
2023-02-12T11:36:06.771Z,98586.84
2023-02-12T11:38:39.248Z,98588.34
2023-02-12T11:41:24.763Z,98589.69
2023-02-12T11:43:53.549Z,98589.33
2023-02-12T11:46:25.736Z,98584.86
2023-02-12T11:48:57.293Z,98585.34
2023-02-12T11:51:29.462Z,98588.08
2023-02-12T11:54:03.794Z,98587.38
2023-02-12T11:56:48.320Z,98584.64
2023-02-12T11:59:30.234Z,98584.97
2023-02-12T12:02:04.542Z,98581.73
2023-02-12T12:04:35.895Z,98585.65
2023-02-12T12:07:16.743Z,98586.31
2023-02-12T12:09:56.483Z,98580.66
2023-02-12T12:12:37.762Z,98580.83
2023-02-12T12:15:29.886Z,98576.02
2023-02-12T12:18:43.798Z,98584.88
2023-02-12T12:21:16.210Z,98595.39
2023-02-12T12:23:59.818Z,98593.85
2023-02-12T12:26:34.528Z,98596.38
2023-02-12T12:29:16.952Z,98594.13
2023-02-12T12:31:48.337Z,98591.20
2023-02-12T12:34:23.890Z,98596.96
2023-02-12T12:37:17.712Z,98592.48
2023-02-12T12:39:55.198Z,98592.24
2023-02-12T12:42:45.687Z,98600.77
2023-02-12T12:45:32.971Z,98602.77
2023-02-12T12:48:24.305Z,98602.56
2023-02-12T12:51:10.402Z,98597.07
2023-02-12T12:53:54.972Z,98600.77
2023-02-12T12:56:54.845Z,98605.19
2023-02-12T12:59:51.173Z,98608.55
2023-02-12T13:02:28.456Z,98609.36
2023-02-12T13:05:21.689Z,98609.98
2023-02-12T13:08:01.786Z,98614.57
2023-02-12T13:10:39.147Z,98618.62
2023-02-12T13:13:31.990Z,98619.61
2023-02-12T13:16:15.224Z,98625.57
2023-02-12T13:18:59.217Z,98625.87
2023-02-12T13:22:08.870Z,98627.91
2023-02-12T13:24:58.335Z,98630.11
2023-02-12T13:27:37.002Z,98631.10
2023-02-12T13:30:18.134Z,98634.64
2023-02-12T13:32:59.413Z,98631.35
2023-02-12T13:35:30.349Z,98643.09
2023-02-12T13:38:00.576Z,98643.23
2023-02-12T13:40:31.727Z,98645.58
2023-02-12T13:43:32.138Z,98650.98
2023-02-12T13:46:25.396Z,98657.61
2023-02-12T13:49:21.699Z,98662.02
2023-02-12T13:52:17.408Z,98663.36
2023-02-12T13:54:49.167Z,98666.93
2023-02-12T13:57:19.902Z,98666.74
2023-02-12T13:59:50.564Z,98666.75
2023-02-12T14:02:33.817Z,98670.84
2023-02-12T14:05:14.669Z,98674.92
2023-02-12T14:07:46.750Z,98673.69
2023-02-12T14:10:22.812Z,98675.91
2023-02-12T14:12:59.534Z,98668.90
2023-02-12T14:15:41.448Z,98666.84
2023-02-12T14:18:32.011Z,98666.48
2023-02-12T14:21:28.745Z,98667.16
2023-02-12T14:24:35.625Z,98669.71
2023-02-12T14:27:29.981Z,98672.11
2023-02-12T14:30:12.076Z,98670.73
2023-02-12T14:32:46.299Z,98668.48
2023-02-12T14:35:45.885Z,98671.21
2023-02-12T14:38:16.738Z,98669.66
2023-02-12T14:40:52.671Z,98671.52
2023-02-12T14:44:02.105Z,98672.72
2023-02-12T14:46:43.744Z,98677.15
2023-02-12T14:49:25.160Z,98677.28
2023-02-12T14:52:14.833Z,98680.86
2023-02-12T14:54:50.064Z,98681.17
2023-02-12T14:57:32.288Z,98682.19
2023-02-12T15:00:25.702Z,98677.04
2023-02-12T15:03:13.965Z,98674.48
2023-02-12T15:06:07.619Z,98681.48
2023-02-12T15:08:45.417Z,98681.46
2023-02-12T15:11:21.590Z,98679.89
2023-02-12T15:14:02.873Z,98679.20
2023-02-12T15:16:38.091Z,98678.16
2023-02-12T15:19:16.718Z,98683.29
2023-02-12T15:21:46.312Z,98682.60
2023-02-12T15:24:23.479Z,98686.35
2023-02-12T15:26:58.965Z,98688.06
2023-02-12T15:29:45.454Z,98693.20
2023-02-12T15:32:23.357Z,98699.55
2023-02-12T15:34:52.550Z,98706.91
2023-02-12T15:37:27.330Z,98708.84
2023-02-12T15:40:00.154Z,98715.17
2023-02-12T15:42:28.250Z,98716.39
2023-02-12T15:45:17.928Z,98723.27
2023-02-12T15:47:57.234Z,98728.58
2023-02-12T15:50:26.341Z,98735.10
2023-02-12T15:52:56.259Z,98743.00
2023-02-12T15:55:28.501Z,98743.89
2023-02-12T15:57:59.793Z,98750.30
2023-02-12T16:00:33.713Z,98757.52
2023-02-12T16:03:01.673Z,98756.06
2023-02-12T16:05:32.597Z,98763.46
2023-02-12T16:08:02.543Z,98769.35
2023-02-12T16:10:31.223Z,98772.34
2023-02-12T16:13:00.627Z,98780.27
2023-02-12T16:15:32.486Z,98783.06
2023-02-12T16:18:04.256Z,98787.55
2023-02-12T16:20:32.553Z,98786.42
2023-02-12T16:23:06.443Z,98792.10
2023-02-12T16:25:35.425Z,98796.10
2023-02-12T16:28:05.218Z,98802.13
2023-02-12T16:30:38.840Z,98805.27
2023-02-12T16:33:45.010Z,98809.41
2023-02-12T16:36:30.557Z,98808.45
2023-02-12T16:39:08.479Z,98809.33
2023-02-12T16:41:55.698Z,98815.54
2023-02-12T16:44:31.108Z,98822.61
2023-02-12T16:47:01.654Z,98821.27
2023-02-12T16:49:29.948Z,98822.35
2023-02-12T16:52:27.168Z,98828.02
2023-02-12T16:54:55.095Z,98828.58
2023-02-12T16:57:23.132Z,98828.59
2023-02-12T16:59:51.237Z,98830.53
2023-02-12T17:02:19.895Z,98837.58
2023-02-12T17:04:47.979Z,98844.79
2023-02-12T17:07:20.344Z,98844.67
2023-02-12T17:09:49.245Z,98845.89
2023-02-12T17:12:17.762Z,98848.32
2023-02-12T17:14:46.219Z,98847.67
2023-02-12T17:17:14.607Z,98851.98
2023-02-12T17:19:42.781Z,98851.14
2023-02-12T17:22:26.402Z,98859.55
2023-02-12T17:24:54.901Z,98864.88
2023-02-12T17:27:23.186Z,98868.15
2023-02-12T17:29:51.383Z,98867.66
2023-02-12T17:32:19.595Z,98867.01
2023-02-12T17:34:48.943Z,98876.41
2023-02-12T17:37:18.430Z,98873.89
2023-02-12T17:39:46.842Z,98878.00
2023-02-12T17:42:15.021Z,98879.02
2023-02-12T17:44:43.200Z,98879.15
2023-02-12T17:47:11.377Z,98877.20
2023-02-12T17:49:40.167Z,98877.14
2023-02-12T17:52:08.664Z,98881.41
2023-02-12T17:54:37.343Z,98881.92
2023-02-12T17:57:05.427Z,98879.70
2023-02-12T17:59:33.490Z,98884.68
2023-02-12T18:02:01.979Z,98885.40
2023-02-12T18:04:35.871Z,98881.82
2023-02-12T18:07:05.298Z,98885.46
2023-02-12T18:09:33.375Z,98887.19
2023-02-12T18:12:01.563Z,98886.70
2023-02-12T18:14:30.141Z,98893.03
2023-02-12T18:16:58.959Z,98894.08
2023-02-12T18:19:29.264Z,98896.33
2023-02-12T18:21:57.433Z,98900.98
2023-02-12T18:24:25.518Z,98900.65
2023-02-12T18:26:53.595Z,98896.59
2023-02-12T18:29:21.663Z,98896.77
2023-02-12T18:31:49.765Z,98891.00
2023-02-12T18:34:18.120Z,98892.21
2023-02-12T18:36:46.374Z,98895.84
2023-02-12T18:39:14.489Z,98889.88
2023-02-12T18:41:43.477Z,98888.02
2023-02-12T18:44:11.565Z,98888.21
2023-02-12T18:46:40.348Z,98889.25
2023-02-12T18:49:10.365Z,98889.29
2023-02-12T18:51:41.216Z,98893.21
2023-02-12T18:54:12.844Z,98893.92
2023-02-12T18:56:43.854Z,98893.43
2023-02-12T18:59:14.128Z,98895.14
2023-02-12T19:01:43.485Z,98898.72
2023-02-12T19:04:16.767Z,98898.21
2023-02-12T19:06:48.811Z,98903.84
2023-02-12T19:09:20.511Z,98909.80
2023-02-12T19:11:50.186Z,98914.41
2023-02-12T19:14:21.115Z,98918.52
2023-02-12T19:16:50.422Z,98923.64
2023-02-12T19:19:21.196Z,98926.56
2023-02-12T19:21:49.946Z,98926.41
2023-02-12T19:24:18.640Z,98928.46
2023-02-12T19:26:50.602Z,98934.30
2023-02-12T19:29:19.093Z,98931.91
2023-02-12T19:31:47.735Z,98940.81
2023-02-12T19:34:19.851Z,98939.97
2023-02-12T19:36:49.957Z,98933.70
2023-02-12T19:39:21.729Z,98933.04
2023-02-12T19:41:50.528Z,98939.72
2023-02-12T19:44:24.595Z,98947.24
2023-02-12T19:46:53.536Z,98950.84
2023-02-12T19:49:24.783Z,98955.46
2023-02-12T19:51:53.577Z,98955.48
2023-02-12T19:54:23.328Z,98953.11
2023-02-12T19:56:53.002Z,98952.46
2023-02-12T19:59:23.026Z,98954.02
2023-02-12T20:01:51.732Z,98962.91
2023-02-12T20:04:23.821Z,98968.54
2023-02-12T20:06:52.646Z,98976.40
2023-02-12T20:09:22.827Z,98976.08
2023-02-12T20:11:51.808Z,98981.20
2023-02-12T20:14:22.740Z,98980.84
2023-02-12T20:16:55.225Z,98971.80
2023-02-12T20:19:26.495Z,98974.56
2023-02-12T20:21:56.849Z,98978.83
2023-02-12T20:24:31.027Z,98979.70
2023-02-12T20:27:00.836Z,98980.73
2023-02-12T20:29:33.000Z,98989.96
2023-02-12T20:32:01.324Z,98988.77
2023-02-12T20:34:30.417Z,98991.67
2023-02-12T20:36:59.677Z,98989.82
2023-02-12T20:39:27.691Z,98993.06
2023-02-12T20:41:56.023Z,98994.26
2023-02-12T20:44:24.418Z,98998.02
2023-02-12T20:46:56.496Z,98997.00
2023-02-12T20:49:26.210Z,98997.02
2023-02-12T20:51:54.901Z,99000.59
2023-02-12T20:54:23.070Z,99003.48
2023-02-12T20:56:51.354Z,99005.89
2023-02-12T20:59:20.505Z,99001.64
2023-02-12T21:01:49.288Z,99004.36
2023-02-12T21:04:19.717Z,99007.08
2023-02-12T21:06:48.714Z,99009.31
2023-02-12T21:09:20.736Z,99008.64
2023-02-12T21:11:49.337Z,99004.70
2023-02-12T21:14:22.215Z,99003.52
2023-02-12T21:16:53.854Z,99005.58
2023-02-12T21:19:22.669Z,99010.86
2023-02-12T21:21:51.055Z,99015.29
2023-02-12T21:24:24.330Z,99015.63
2023-02-12T21:26:54.146Z,99014.44
2023-02-12T21:29:23.866Z,99015.13
2023-02-12T21:31:52.267Z,99015.13
2023-02-12T21:34:22.743Z,99013.77
2023-02-12T21:36:54.254Z,99003.73
2023-02-12T21:39:27.539Z,99001.18
2023-02-12T21:42:00.229Z,99007.81
2023-02-12T21:44:29.845Z,99014.11
2023-02-12T21:46:59.125Z,99016.52
2023-02-12T21:49:28.476Z,99011.23
2023-02-12T21:52:02.262Z,99011.41
2023-02-12T21:54:30.973Z,99002.41
2023-02-12T21:57:00.225Z,98999.84
2023-02-12T21:59:31.499Z,99004.77
2023-02-12T22:02:01.822Z,99002.38
2023-02-12T22:04:29.954Z,99002.21
2023-02-12T22:06:59.807Z,99001.21
2023-02-12T22:09:27.964Z,99003.77
2023-02-12T22:11:56.041Z,99007.84
2023-02-12T22:14:24.013Z,99014.65
2023-02-12T22:16:52.302Z,99013.29
2023-02-12T22:19:20.331Z,99012.12
2023-02-12T22:21:51.851Z,99008.54
2023-02-12T22:24:20.620Z,99010.23
2023-02-12T22:26:48.996Z,99017.05
2023-02-12T22:29:17.489Z,99024.20
2023-02-12T22:31:47.233Z,99023.69
2023-02-12T22:34:18.918Z,99025.39
2023-02-12T22:36:47.858Z,99024.55
2023-02-12T22:39:17.746Z,99019.09
2023-02-12T22:41:46.441Z,99015.85
2023-02-12T22:44:16.442Z,99016.72
2023-02-12T22:46:45.142Z,99018.06
2023-02-12T22:49:13.977Z,99025.73
2023-02-12T22:51:42.246Z,99034.07
2023-02-12T22:54:15.918Z,99037.13
2023-02-12T22:56:45.472Z,99036.13
2023-02-12T22:59:13.734Z,99035.09
2023-02-12T23:01:42.637Z,99034.08
2023-02-12T23:04:18.826Z,99031.52
2023-02-12T23:06:47.391Z,99032.20
2023-02-12T23:09:18.946Z,99028.30
2023-02-12T23:11:48.445Z,99030.32
2023-02-12T23:14:17.060Z,99039.69
2023-02-12T23:16:46.224Z,99041.55
2023-02-12T23:19:15.131Z,99045.63
2023-02-12T23:21:43.932Z,99046.66
2023-02-12T23:24:14.234Z,99043.25
2023-02-12T23:26:42.549Z,99047.84
2023-02-12T23:29:11.053Z,99048.70
2023-02-12T23:31:39.350Z,99043.25
2023-02-12T23:34:07.604Z,99040.35
2023-02-12T23:36:35.982Z,99041.37
2023-02-12T23:39:06.213Z,99040.52
2023-02-12T23:41:34.763Z,99032.86
2023-02-12T23:44:03.094Z,99031.66
2023-02-12T23:46:32.085Z,99026.91
2023-02-12T23:49:00.055Z,99022.48
2023-02-12T23:51:28.132Z,99015.67
2023-02-12T23:53:56.520Z,99016.00
2023-02-12T23:56:25.000Z,99014.81
2023-02-12T23:58:55.762Z,99014.48
